Time;durP1;ratioP1;P1;durP2;ratioP2;P2;SDS_P1;SDS_P2;PMS_P1;PMS_P2;Temp;Humidity;BMP_temperature;BMP_pressure;BME280_temperature;BME280_humidity;BME280_pressure;Samples;Min_cycle;Max_cycle;Signal;HPM_P1;HPM_P2
2023/01/07 00:00:47;;;;;;;8.07;5.07;;;11.60;99.90;;;;;;5028876;28;20235;-61
2023/01/07 00:03:15;;;;;;;7.40;5.57;;;11.50;99.90;;;;;;5012758;28;20191;-61
2023/01/07 00:05:41;;;;;;;7.88;5.13;;;11.60;99.90;;;;;;5013908;28;20207;-62
2023/01/07 00:08:07;;;;;;;10.63;5.50;;;11.70;99.90;;;;;;5014726;28;20214;-62
2023/01/07 00:10:34;;;;;;;15.98;6.40;;;11.90;99.90;;;;;;5016610;28;20226;-61
2023/01/07 00:13:00;;;;;;;12.20;5.68;;;11.80;99.90;;;;;;5014758;28;20177;-61
2023/01/07 00:15:25;;;;;;;10.98;5.65;;;11.70;99.90;;;;;;5009730;28;20645;-61
2023/01/07 00:17:51;;;;;;;9.15;5.40;;;11.70;99.90;;;;;;5010479;28;20547;-61
2023/01/07 00:20:17;;;;;;;11.68;5.78;;;11.60;99.90;;;;;;5024860;28;20630;-60
2023/01/07 00:22:42;;;;;;;9.68;4.13;;;11.70;99.90;;;;;;5027073;28;20182;-60
2023/01/07 00:25:08;;;;;;;9.43;6.07;;;11.60;99.90;;;;;;5028330;28;20215;-60
2023/01/07 00:27:34;;;;;;;14.15;7.05;;;11.60;99.90;;;;;;5012688;28;20628;-63
2023/01/07 00:29:59;;;;;;;13.85;5.82;;;11.60;99.90;;;;;;5001843;28;20574;-60
2023/01/07 00:32:55;;;;;;;16.05;6.35;;;11.60;99.90;;;;;;4995087;28;20184;-60
2023/01/07 00:35:22;;;;;;;11.27;5.32;;;11.50;99.90;;;;;;5024302;28;20278;-61
2023/01/07 00:37:52;;;;;;;9.57;6.00;;;11.50;99.90;;;;;;5013368;28;20274;-61
2023/01/07 00:40:19;;;;;;;10.90;6.03;;;11.50;99.90;;;;;;5011569;28;20183;-62
2023/01/07 00:42:55;;;;;;;10.52;5.40;;;11.60;99.90;;;;;;5024866;28;20175;-61
2023/01/07 00:45:22;;;;;;;10.90;6.07;;;11.60;99.90;;;;;;5021522;28;20206;-60
2023/01/07 00:47:52;;;;;;;12.52;5.75;;;11.60;99.90;;;;;;5017861;28;20612;-61
2023/01/07 00:50:21;;;;;;;11.80;6.20;;;11.60;99.90;;;;;;4995722;28;20179;-62
2023/01/07 00:52:47;;;;;;;12.35;5.63;;;11.60;99.90;;;;;;5026780;28;20202;-61
2023/01/07 00:55:13;;;;;;;9.75;6.00;;;11.60;99.90;;;;;;5011682;28;20199;-60
2023/01/07 00:57:40;;;;;;;9.77;5.18;;;11.50;99.90;;;;;;5027723;28;20249;-61
2023/01/07 01:00:08;;;;;;;10.65;5.35;;;11.50;99.90;;;;;;5012741;28;20191;-61
2023/01/07 01:02:34;;;;;;;11.65;6.28;;;11.50;99.90;;;;;;5024034;28;20203;-61
2023/01/07 01:04:59;;;;;;;14.85;6.15;;;11.60;99.90;;;;;;5019004;28;20214;-61
2023/01/07 01:07:25;;;;;;;11.10;6.80;;;11.60;99.90;;;;;;5016986;28;20179;-61
2023/01/07 01:09:51;;;;;;;13.25;6.28;;;11.60;99.90;;;;;;5012361;28;20198;-61
2023/01/07 01:12:16;;;;;;;11.60;5.03;;;11.70;99.90;;;;;;5020768;28;20632;-61
2023/01/07 01:14:42;;;;;;;14.00;5.68;;;11.50;99.90;;;;;;5018915;28;20187;-61
2023/01/07 01:17:08;;;;;;;9.07;6.07;;;11.60;99.90;;;;;;5013239;28;20178;-61
2023/01/07 01:19:33;;;;;;;6.68;5.25;;;11.50;99.90;;;;;;5013316;28;20184;-61
2023/01/07 01:21:59;;;;;;;11.38;6.22;;;11.60;99.90;;;;;;5023695;28;20191;-62
2023/01/07 01:24:25;;;;;;;14.02;5.93;;;11.50;99.90;;;;;;5013756;28;20284;-61
2023/01/07 01:26:50;;;;;;;8.75;6.03;;;11.50;99.90;;;;;;5019942;28;20187;-61
2023/01/07 01:29:16;;;;;;;12.35;5.85;;;11.50;99.90;;;;;;5021623;28;20525;-61
2023/01/07 01:31:42;;;;;;;8.60;5.38;;;11.50;99.90;;;;;;5011277;28;20578;-61
2023/01/07 01:34:07;;;;;;;9.05;5.85;;;11.50;99.90;;;;;;5012203;28;20191;-61
2023/01/07 01:36:33;;;;;;;7.03;5.03;;;11.50;99.90;;;;;;5009254;28;20187;-61
2023/01/07 01:38:59;;;;;;;9.10;5.70;;;11.60;99.90;;;;;;5011063;28;20184;-61
2023/01/07 01:41:24;;;;;;;7.28;4.95;;;11.70;99.90;;;;;;5019980;28;20211;-61
2023/01/07 01:43:50;;;;;;;9.77;5.60;;;11.60;99.90;;;;;;5011437;28;20183;-61
2023/01/07 01:46:38;;;;;;;10.43;5.80;;;11.60;99.90;;;;;;5028483;28;20191;-61
2023/01/07 01:49:04;;;;;;;10.15;5.38;;;11.60;99.90;;;;;;5016976;28;20237;-62
2023/01/07 01:51:33;;;;;;;7.38;5.63;;;11.60;99.90;;;;;;5030205;28;20211;-61
2023/01/07 01:54:02;;;;;;;5.93;4.97;;;11.70;99.90;;;;;;5016566;28;20650;-61
2023/01/07 01:56:37;;;;;;;10.95;5.68;;;11.70;99.90;;;;;;5012174;28;20266;-62
2023/01/07 01:59:13;;;;;;;10.07;4.65;;;11.60;99.90;;;;;;5005995;28;20178;-63
2023/01/07 02:01:39;;;;;;;7.40;5.00;;;11.70;99.90;;;;;;5017396;28;20174;-61
2023/01/07 02:04:11;;;;;;;8.63;5.13;;;11.70;99.90;;;;;;5033776;28;20662;-61
2023/01/07 02:06:44;;;;;;;7.80;5.18;;;11.70;99.90;;;;;;5021044;28;20179;-61
2023/01/07 02:09:13;;;;;;;8.43;4.78;;;11.70;99.90;;;;;;5016189;28;20176;-61
2023/01/07 02:12:26;;;;;;;6.35;5.57;;;11.70;99.90;;;;;;5018676;28;20633;-63
2023/01/07 02:15:18;;;;;;;9.10;4.90;;;11.70;99.90;;;;;;4983614;28;20207;-61
2023/01/07 02:18:06;;;;;;;9.60;5.50;;;11.80;99.90;;;;;;5011715;28;20650;-61
2023/01/07 02:21:05;;;;;;;6.97;4.90;;;11.80;99.90;;;;;;5016124;28;20257;-61
2023/01/07 02:23:43;;;;;;;4.93;4.43;;;11.80;99.90;;;;;;5007451;28;20187;-61
2023/01/07 02:26:27;;;;;;;6.00;4.90;;;11.80;99.90;;;;;;5015725;28;20229;-61
2023/01/07 02:29:14;;;;;;;6.85;4.95;;;11.80;99.90;;;;;;5022306;28;20262;-62
2023/01/07 02:31:58;;;;;;;5.45;4.88;;;11.80;99.90;;;;;;5001487;28;20184;-61
2023/01/07 02:34:46;;;;;;;5.35;4.82;;;11.90;99.90;;;;;;5005070;28;20187;-61
2023/01/07 02:37:22;;;;;;;10.02;5.03;;;11.90;99.90;;;;;;5019332;28;20206;-61
2023/01/07 02:40:00;;;;;;;6.00;5.22;;;11.90;99.90;;;;;;5015266;28;20183;-62
2023/01/07 02:42:44;;;;;;;8.02;5.25;;;11.90;99.90;;;;;;5012959;28;20179;-63
2023/01/07 02:45:50;;;;;;;4.45;3.97;;;11.90;99.90;;;;;;5009572;28;20198;-61
2023/01/07 02:48:20;;;;;;;6.72;4.80;;;12.00;99.90;;;;;;5014359;28;20194;-61
2023/01/07 02:50:45;;;;;;;5.78;4.18;;;11.90;99.90;;;;;;5017579;28;20628;-61
2023/01/07 02:53:16;;;;;;;5.82;4.60;;;12.00;99.90;;;;;;5033818;28;20186;-61
2023/01/07 02:56:23;;;;;;;7.05;4.30;;;12.00;99.90;;;;;;5020187;28;20203;-60
2023/01/07 02:59:02;;;;;;;5.20;4.70;;;12.00;99.90;;;;;;5014227;28;20249;-61
2023/01/07 03:01:47;;;;;;;4.97;4.47;;;12.00;99.90;;;;;;5020696;28;20222;-61
2023/01/07 03:04:41;;;;;;;5.63;3.85;;;12.00;99.90;;;;;;5013624;28;20587;-59
2023/01/07 03:07:34;;;;;;;6.47;3.47;;;12.10;99.90;;;;;;5018614;28;20190;-61
2023/01/07 03:10:16;;;;;;;3.50;3.15;;;12.10;99.90;;;;;;5014200;28;20266;-60
2023/01/07 03:12:48;;;;;;;3.45;3.15;;;12.10;99.90;;;;;;5014821;28;20644;-62
2023/01/07 03:15:18;;;;;;;5.57;3.85;;;12.00;99.90;;;;;;5015596;28;20187;-62
2023/01/07 03:18:07;;;;;;;4.70;2.70;;;12.10;99.90;;;;;;5019216;28;20204;-61
2023/01/07 03:20:37;;;;;;;4.68;2.85;;;12.10;99.90;;;;;;5002928;28;20187;-61
2023/01/07 03:23:08;;;;;;;4.38;3.03;;;12.20;99.90;;;;;;5013649;28;20183;-64
2023/01/07 03:25:39;;;;;;;4.25;3.22;;;12.20;99.90;;;;;;5004300;28;20215;-62
2023/01/07 03:28:06;;;;;;;4.30;2.97;;;12.20;99.90;;;;;;5010366;28;20202;-63
2023/01/07 03:30:33;;;;;;;4.53;2.60;;;12.20;99.90;;;;;;5014256;28;20540;-62
2023/01/07 03:33:10;;;;;;;3.08;2.53;;;12.20;99.90;;;;;;5015848;28;20262;-62
2023/01/07 03:35:39;;;;;;;3.83;3.03;;;12.10;99.90;;;;;;5005866;28;20171;-60
2023/01/07 03:38:06;;;;;;;3.05;2.72;;;12.10;99.90;;;;;;5014975;28;20176;-60
2023/01/07 03:40:32;;;;;;;3.08;2.65;;;12.10;99.90;;;;;;5013650;28;20191;-60
2023/01/07 03:42:59;;;;;;;2.97;2.75;;;12.10;99.90;;;;;;5012435;28;20179;-61
2023/01/07 03:45:26;;;;;;;4.03;2.08;;;12.10;99.90;;;;;;5024233;28;20290;-61
2023/01/07 03:47:54;;;;;;;2.60;2.40;;;12.10;99.90;;;;;;5015601;28;20533;-61
2023/01/07 03:50:20;;;;;;;2.58;2.38;;;12.20;99.90;;;;;;5013433;28;20183;-61
2023/01/07 03:52:49;;;;;;;4.35;2.30;;;12.10;99.90;;;;;;5025670;28;20575;-61
2023/01/07 03:55:16;;;;;;;2.25;2.08;;;12.10;99.90;;;;;;5020274;28;20648;-61
2023/01/07 03:57:41;;;;;;;5.28;2.72;;;12.10;99.90;;;;;;5013853;28;20187;-64
2023/01/07 04:00:09;;;;;;;2.40;2.17;;;12.10;99.90;;;;;;5013734;28;20183;-60
2023/01/07 04:02:35;;;;;;;4.10;3.70;;;12.00;99.90;;;;;;5020704;28;20215;-60
2023/01/07 04:05:00;;;;;;;2.33;2.22;;;11.90;99.90;;;;;;5035321;28;20234;-60
2023/01/07 04:07:26;;;;;;;3.00;2.28;;;11.80;99.90;;;;;;5014849;28;20183;-60
2023/01/07 04:09:52;;;;;;;2.78;2.50;;;11.80;99.90;;;;;;5013146;28;20245;-60
2023/01/07 04:12:17;;;;;;;2.78;2.40;;;11.80;99.90;;;;;;5013316;28;20195;-60
2023/01/07 04:14:43;;;;;;;1.92;1.83;;;11.70;99.90;;;;;;5032182;28;20193;-60
2023/01/07 04:17:09;;;;;;;2.20;2.03;;;11.70;99.90;;;;;;5013096;28;20195;-61
2023/01/07 04:19:37;;;;;;;2.47;2.03;;;11.70;99.90;;;;;;5013409;28;20242;-60
2023/01/07 04:22:04;;;;;;;2.10;2.00;;;11.70;99.90;;;;;;5013405;28;20178;-60
2023/01/07 04:24:30;;;;;;;2.58;2.30;;;11.80;99.90;;;;;;5021920;28;20270;-62
2023/01/07 04:26:56;;;;;;;2.95;2.63;;;11.80;99.90;;;;;;5017900;28;20187;-60
2023/01/07 04:29:22;;;;;;;1.98;1.88;;;11.80;99.90;;;;;;5013514;28;20582;-64
2023/01/07 04:31:48;;;;;;;2.22;1.50;;;11.70;99.90;;;;;;5029430;28;20688;-61
2023/01/07 04:34:14;;;;;;;5.68;2.22;;;11.70;99.90;;;;;;5019079;28;20183;-61
2023/01/07 04:36:40;;;;;;;1.73;1.63;;;11.70;99.90;;;;;;5023440;28;20239;-61
2023/01/07 04:39:05;;;;;;;2.45;1.95;;;11.80;99.90;;;;;;5012662;28;20624;-60
2023/01/07 04:41:31;;;;;;;2.72;2.40;;;11.90;99.90;;;;;;5025754;28;20197;-60
2023/01/07 04:43:57;;;;;;;2.88;1.85;;;11.90;99.90;;;;;;5014551;28;20514;-60
2023/01/07 04:46:24;;;;;;;3.42;1.63;;;11.90;99.90;;;;;;5028923;28;20632;-63
2023/01/07 04:48:49;;;;;;;1.73;1.63;;;11.80;99.90;;;;;;5028387;28;20293;-62
2023/01/07 04:51:15;;;;;;;4.00;2.08;;;11.90;99.90;;;;;;5015964;28;20632;-61
2023/01/07 04:53:41;;;;;;;1.77;1.45;;;11.80;99.90;;;;;;5013170;28;20190;-61
2023/01/07 04:56:07;;;;;;;4.38;1.98;;;11.90;99.90;;;;;;5002444;28;20187;-62
2023/01/07 04:58:33;;;;;;;2.42;2.22;;;11.90;99.90;;;;;;5015610;28;20186;-60
2023/01/07 05:01:01;;;;;;;2.08;1.42;;;11.90;99.90;;;;;;5015273;28;20175;-60
2023/01/07 05:03:27;;;;;;;2.08;1.98;;;11.80;99.90;;;;;;5011188;28;20187;-61
2023/01/07 05:05:53;;;;;;;1.83;1.70;;;11.80;99.90;;;;;;5012861;28;20238;-61
2023/01/07 05:08:18;;;;;;;1.67;1.45;;;11.80;99.90;;;;;;5012740;28;20629;-61
2023/01/07 05:10:44;;;;;;;2.92;1.75;;;11.80;99.90;;;;;;5012662;28;20628;-61
2023/01/07 05:13:17;;;;;;;1.52;1.45;;;11.70;99.90;;;;;;5032177;28;20199;-61
2023/01/07 05:15:43;;;;;;;2.08;1.98;;;11.60;99.90;;;;;;5011040;28;20211;-61
2023/01/07 05:18:08;;;;;;;5.45;1.63;;;11.60;99.90;;;;;;5008071;28;20218;-61
2023/01/07 05:20:34;;;;;;;2.80;1.48;;;11.60;99.90;;;;;;5011521;28;20233;-61
2023/01/07 05:23:00;;;;;;;1.10;1.10;;;11.60;99.90;;;;;;5012712;28;20179;-61
2023/01/07 05:25:25;;;;;;;3.45;1.60;;;11.70;99.90;;;;;;5013495;28;20652;-60
2023/01/07 05:27:51;;;;;;;1.15;1.15;;;11.70;99.90;;;;;;5011953;28;20191;-61
2023/01/07 05:30:17;;;;;;;1.17;1.08;;;11.70;99.90;;;;;;5026958;28;20211;-61
2023/01/07 05:32:42;;;;;;;1.55;1.45;;;11.70;99.90;;;;;;5012888;28;20183;-61
2023/01/07 05:35:08;;;;;;;2.13;1.30;;;11.70;99.90;;;;;;5013330;28;20191;-62
2023/01/07 05:37:34;;;;;;;2.28;1.40;;;11.70;99.90;;;;;;5034539;28;20268;-62
2023/01/07 05:40:00;;;;;;;1.58;1.48;;;11.70;99.90;;;;;;5020306;28;20210;-62
2023/01/07 05:42:26;;;;;;;1.50;1.40;;;11.80;99.90;;;;;;5011219;28;20636;-61
2023/01/07 05:44:52;;;;;;;1.60;1.50;;;11.70;99.90;;;;;;5001007;28;20274;-61
2023/01/07 05:47:17;;;;;;;1.55;1.50;;;11.70;99.90;;;;;;5029208;28;20581;-60
2023/01/07 05:49:43;;;;;;;1.77;1.65;;;11.70;99.90;;;;;;4982039;28;20184;-60
2023/01/07 05:52:09;;;;;;;1.45;1.35;;;11.70;99.90;;;;;;5011104;28;20233;-62
2023/01/07 05:54:34;;;;;;;1.67;1.40;;;11.60;99.90;;;;;;5017768;28;20207;-61
2023/01/07 05:57:00;;;;;;;1.33;1.23;;;11.60;99.90;;;;;;5012515;28;20673;-60
2023/01/07 05:59:25;;;;;;;1.52;1.52;;;11.60;99.90;;;;;;5027983;28;20183;-61
2023/01/07 06:01:51;;;;;;;1.80;1.70;;;11.50;99.90;;;;;;5013024;28;20189;-60
2023/01/07 06:04:17;;;;;;;5.28;1.63;;;11.50;99.90;;;;;;5012601;28;20276;-62
2023/01/07 06:06:42;;;;;;;3.80;1.85;;;11.60;99.90;;;;;;5016138;28;20178;-62
2023/01/07 06:09:10;;;;;;;1.73;1.63;;;11.60;99.90;;;;;;5011638;28;20313;-66
2023/01/07 06:11:35;;;;;;;2.05;1.95;;;11.60;99.90;;;;;;5027562;28;20668;-63
2023/01/07 06:14:01;;;;;;;1.50;1.40;;;11.50;99.90;;;;;;5011755;28;20202;-61
2023/01/07 06:16:27;;;;;;;1.85;1.38;;;11.50;99.90;;;;;;5012612;28;20627;-62
2023/01/07 06:18:53;;;;;;;2.05;1.60;;;11.50;99.90;;;;;;5012939;28;20539;-61
2023/01/07 06:21:20;;;;;;;1.17;1.17;;;11.60;99.90;;;;;;4996020;28;20215;-61
2023/01/07 06:23:46;;;;;;;2.75;1.85;;;11.60;99.90;;;;;;5008374;28;20191;-61
2023/01/07 06:26:11;;;;;;;2.72;1.48;;;11.60;99.90;;;;;;5012988;28;20222;-62
2023/01/07 06:28:37;;;;;;;3.55;1.50;;;11.70;99.90;;;;;;5012246;28;20179;-61
2023/01/07 06:31:02;;;;;;;5.57;1.40;;;11.70;99.90;;;;;;5014171;28;20543;-62
2023/01/07 06:33:28;;;;;;;1.80;1.65;;;11.80;99.90;;;;;;5030438;28;20714;-61
2023/01/07 06:35:54;;;;;;;3.05;1.50;;;11.70;99.90;;;;;;5017438;28;20194;-62
2023/01/07 06:38:19;;;;;;;1.50;1.40;;;11.70;99.90;;;;;;5014232;28;20180;-62
2023/01/07 06:40:45;;;;;;;1.33;1.30;;;11.70;99.90;;;;;;5009124;28;20192;-63
2023/01/07 06:43:11;;;;;;;1.90;1.38;;;11.80;99.90;;;;;;5033208;28;20180;-62
2023/01/07 06:45:36;;;;;;;1.20;1.13;;;11.70;99.90;;;;;;5016083;28;20208;-62
2023/01/07 06:48:02;;;;;;;2.92;1.63;;;11.80;99.90;;;;;;5026870;28;20175;-61
2023/01/07 06:50:28;;;;;;;0.93;0.90;;;11.90;99.90;;;;;;5020246;28;20610;-62
2023/01/07 06:52:55;;;;;;;1.23;1.20;;;11.90;99.90;;;;;;5014800;28;20190;-62
2023/01/07 06:55:21;;;;;;;1.75;1.65;;;11.70;99.90;;;;;;5014529;28;20205;-62
2023/01/07 06:57:47;;;;;;;2.80;1.50;;;11.70;99.90;;;;;;5021062;28;20602;-62
2023/01/07 07:00:13;;;;;;;1.92;1.50;;;11.80;99.90;;;;;;5013719;28;20180;-62
2023/01/07 07:02:39;;;;;;;1.88;1.38;;;11.80;99.90;;;;;;5021999;28;20526;-62
2023/01/07 07:05:05;;;;;;;1.40;1.30;;;11.80;99.90;;;;;;5017958;28;20211;-62
2023/01/07 07:07:30;;;;;;;1.52;1.42;;;11.80;99.90;;;;;;5028113;28;20186;-61
2023/01/07 07:09:56;;;;;;;1.25;1.15;;;11.80;99.90;;;;;;5023158;28;20174;-61
2023/01/07 07:12:22;;;;;;;1.23;1.20;;;11.70;99.90;;;;;;5034312;28;20187;-61
2023/01/07 07:14:47;;;;;;;5.18;1.55;;;11.80;99.90;;;;;;5022552;28;20183;-63
2023/01/07 07:17:13;;;;;;;1.70;1.60;;;11.60;99.90;;;;;;5034496;28;20179;-61
2023/01/07 07:19:39;;;;;;;1.65;1.55;;;11.70;99.90;;;;;;5024325;28;20187;-61
2023/01/07 07:22:04;;;;;;;2.40;1.77;;;11.70;99.90;;;;;;5036165;28;20183;-61
2023/01/07 07:24:30;;;;;;;1.40;1.30;;;11.70;99.90;;;;;;5030065;28;20310;-61
2023/01/07 07:26:56;;;;;;;1.60;1.30;;;11.70;99.90;;;;;;5009378;28;20245;-61
2023/01/07 07:29:21;;;;;;;1.48;1.38;;;11.70;99.90;;;;;;4997409;28;20277;-61
2023/01/07 07:31:47;;;;;;;1.95;1.40;;;11.80;99.90;;;;;;5012320;28;20188;-61
2023/01/07 07:34:13;;;;;;;1.42;1.33;;;11.80;99.90;;;;;;5022002;28;20197;-61
2023/01/07 07:36:38;;;;;;;1.27;1.17;;;11.80;99.90;;;;;;5027154;28;20191;-62
2023/01/07 07:39:04;;;;;;;3.00;2.05;;;11.70;99.90;;;;;;5019466;28;20530;-61
2023/01/07 07:41:30;;;;;;;1.48;1.42;;;11.80;99.90;;;;;;5014853;28;20245;-61
2023/01/07 07:43:56;;;;;;;4.10;1.15;;;11.80;99.90;;;;;;5028740;28;20187;-61
2023/01/07 07:46:21;;;;;;;2.03;1.67;;;11.70;99.90;;;;;;5013065;28;20691;-62
2023/01/07 07:48:48;;;;;;;1.30;1.30;;;11.70;99.90;;;;;;5013286;28;20229;-63
2023/01/07 07:51:14;;;;;;;1.00;1.00;;;11.80;99.90;;;;;;5018633;28;20186;-63
2023/01/07 07:53:40;;;;;;;2.05;1.05;;;11.80;99.90;;;;;;5012656;28;20188;-62
2023/01/07 07:56:07;;;;;;;1.13;1.13;;;11.90;99.90;;;;;;5020500;28;20244;-62
2023/01/07 07:58:33;;;;;;;1.15;1.15;;;11.90;99.90;;;;;;5029266;28;20179;-62
2023/01/07 08:00:58;;;;;;;1.40;1.30;;;12.00;99.90;;;;;;5026392;28;20184;-60
2023/01/07 08:03:24;;;;;;;1.15;1.15;;;12.00;99.90;;;;;;5013525;28;20186;-60
2023/01/07 08:05:51;;;;;;;1.35;1.30;;;11.90;99.90;;;;;;5021158;28;20226;-60
2023/01/07 08:08:16;;;;;;;0.80;0.80;;;11.90;99.90;;;;;;5016686;28;20183;-60
2023/01/07 08:10:43;;;;;;;1.10;1.10;;;12.00;99.90;;;;;;5023485;28;20191;-61
2023/01/07 08:13:11;;;;;;;2.40;1.40;;;12.00;99.90;;;;;;4995814;28;20292;-60
2023/01/07 08:15:37;;;;;;;1.10;0.98;;;12.00;99.90;;;;;;5014779;28;20191;-60
2023/01/07 08:18:06;;;;;;;1.63;1.45;;;12.10;99.90;;;;;;5001605;28;20233;-61
2023/01/07 08:20:33;;;;;;;1.35;1.25;;;12.00;99.90;;;;;;5007293;28;20566;-61
2023/01/07 08:23:00;;;;;;;3.00;1.52;;;12.00;99.90;;;;;;5013604;28;20234;-60
2023/01/07 08:25:29;;;;;;;1.25;1.23;;;12.00;99.90;;;;;;5013557;28;20238;-65
2023/01/07 08:27:56;;;;;;;1.13;1.13;;;12.00;99.90;;;;;;5027456;28;20175;-65
2023/01/07 08:30:23;;;;;;;2.88;1.58;;;11.90;99.90;;;;;;5013098;28;20187;-62
2023/01/07 08:32:49;;;;;;;1.30;1.20;;;12.00;99.90;;;;;;5013847;28;20230;-61
2023/01/07 08:35:15;;;;;;;2.92;1.25;;;12.00;99.90;;;;;;5013051;28;20187;-61
2023/01/07 08:37:41;;;;;;;2.35;1.58;;;12.00;99.90;;;;;;4996869;28;20184;-65
2023/01/07 08:40:07;;;;;;;1.40;1.30;;;11.90;99.90;;;;;;5013794;28;20283;-62
2023/01/07 08:42:33;;;;;;;1.65;1.52;;;11.90;99.90;;;;;;5013049;28;20548;-61
2023/01/07 08:44:59;;;;;;;1.60;1.50;;;11.90;99.90;;;;;;5011885;28;20203;-62
2023/01/07 08:47:26;;;;;;;2.22;1.30;;;11.90;99.90;;;;;;5028678;28;20219;-62
2023/01/07 08:49:53;;;;;;;2.38;1.48;;;11.80;99.90;;;;;;5013748;28;20241;-61
2023/01/07 08:52:20;;;;;;;1.27;1.27;;;11.70;99.90;;;;;;5013740;28;20319;-63
2023/01/07 08:54:47;;;;;;;1.50;1.40;;;11.70;99.90;;;;;;5011891;28;20198;-61
2023/01/07 08:57:12;;;;;;;1.92;1.40;;;11.80;99.90;;;;;;5013143;28;20663;-62
2023/01/07 08:59:39;;;;;;;2.70;1.92;;;11.80;99.90;;;;;;5019630;28;20183;-61
2023/01/07 09:02:12;;;;;;;1.50;1.50;;;11.80;99.90;;;;;;5015041;28;20692;-62
2023/01/07 09:04:38;;;;;;;1.35;1.27;;;11.90;99.90;;;;;;5013187;28;20309;-61
2023/01/07 09:07:03;;;;;;;1.33;1.20;;;11.90;99.90;;;;;;5028262;28;20270;-63
2023/01/07 09:09:29;;;;;;;1.50;1.40;;;11.90;99.90;;;;;;5011879;28;20175;-61
2023/01/07 09:11:55;;;;;;;2.42;2.20;;;11.90;99.90;;;;;;5012432;28;20191;-61
2023/01/07 09:14:20;;;;;;;2.83;1.40;;;11.90;99.90;;;;;;5013103;28;20459;-60
2023/01/07 09:16:46;;;;;;;1.60;1.50;;;11.80;99.90;;;;;;5017478;28;20190;-60
2023/01/07 09:19:11;;;;;;;1.10;1.10;;;11.80;99.90;;;;;;5012820;28;20191;-60
2023/01/07 09:21:37;;;;;;;1.20;1.20;;;11.70;99.90;;;;;;5013018;28;20175;-61
2023/01/07 09:24:03;;;;;;;2.60;1.35;;;11.70;99.90;;;;;;5013302;28;20225;-61
2023/01/07 09:26:29;;;;;;;1.70;1.52;;;11.80;99.90;;;;;;5028660;28;20230;-61
2023/01/07 09:28:54;;;;;;;1.25;1.20;;;11.80;99.90;;;;;;5023429;28;20241;-62
2023/01/07 09:31:21;;;;;;;1.65;1.40;;;11.70;99.90;;;;;;5012703;28;20244;-63
2023/01/07 09:33:47;;;;;;;1.67;1.58;;;11.70;99.90;;;;;;5012696;28;20182;-62
2023/01/07 09:36:12;;;;;;;1.45;1.33;;;11.70;99.90;;;;;;5008444;28;20194;-64
2023/01/07 09:38:38;;;;;;;1.67;1.58;;;11.80;99.90;;;;;;5013403;28;20199;-61
2023/01/07 09:41:15;;;;;;;1.55;1.45;;;11.80;99.90;;;;;;5011232;28;20522;-61
2023/01/07 09:43:47;;;;;;;2.08;1.48;;;11.90;99.90;;;;;;5012459;28;20244;-61
2023/01/07 09:46:14;;;;;;;1.73;1.60;;;12.10;99.90;;;;;;5011648;28;20534;-61
2023/01/07 09:48:46;;;;;;;1.67;1.48;;;12.10;99.90;;;;;;5008496;28;20191;-63
2023/01/07 09:51:20;;;;;;;2.28;1.40;;;12.20;99.90;;;;;;5013725;28;20182;-62
2023/01/07 09:53:51;;;;;;;2.13;1.63;;;12.10;99.90;;;;;;5012342;28;20583;-63
2023/01/07 09:56:27;;;;;;;1.60;1.50;;;12.00;99.90;;;;;;5014350;28;20230;-61
2023/01/07 09:58:54;;;;;;;3.03;2.08;;;12.00;99.90;;;;;;5012806;28;20194;-63
2023/01/07 10:01:38;;;;;;;3.92;2.00;;;12.10;99.90;;;;;;5015659;28;20186;-62
2023/01/07 10:04:24;;;;;;;2.15;1.70;;;12.10;99.90;;;;;;5011204;28;20183;-62
2023/01/07 10:06:56;;;;;;;1.27;1.20;;;12.10;99.90;;;;;;5009244;28;20274;-61
2023/01/07 10:09:34;;;;;;;2.35;1.48;;;12.10;99.90;;;;;;5018478;28;20238;-61
2023/01/07 10:12:14;;;;;;;2.88;1.90;;;12.00;99.90;;;;;;5017697;28;20569;-61
2023/01/07 10:14:45;;;;;;;1.25;1.05;;;12.00;99.90;;;;;;5009528;28;20249;-62
2023/01/07 10:17:28;;;;;;;6.95;2.50;;;12.00;99.90;;;;;;5016014;28;20187;-62
2023/01/07 10:19:57;;;;;;;2.10;2.00;;;12.00;99.90;;;;;;5016390;28;20185;-62
2023/01/07 10:22:36;;;;;;;2.25;1.48;;;12.00;99.90;;;;;;5015978;28;20612;-63
2023/01/07 10:25:26;;;;;;;1.52;1.42;;;11.90;99.90;;;;;;5019785;28;20211;-61
2023/01/07 10:27:55;;;;;;;1.42;1.33;;;11.90;99.90;;;;;;5024144;28;20236;-61
2023/01/07 10:30:25;;;;;;;1.92;1.83;;;12.00;99.90;;;;;;5022668;28;20175;-60
2023/01/07 10:33:16;;;;;;;1.70;1.60;;;12.00;99.90;;;;;;5015966;28;20180;-63
2023/01/07 10:35:42;;;;;;;1.00;1.00;;;12.00;99.90;;;;;;5010681;28;20202;-61
2023/01/07 10:38:19;;;;;;;1.92;1.67;;;12.00;99.90;;;;;;5017516;28;20187;-61
2023/01/07 10:40:58;;;;;;;1.55;1.45;;;12.00;99.90;;;;;;5016350;28;20494;-61
2023/01/07 10:43:51;;;;;;;5.90;1.80;;;12.00;99.90;;;;;;5014780;28;20499;-60
2023/01/07 10:46:23;;;;;;;1.60;1.50;;;12.10;99.90;;;;;;5015080;28;20207;-61
2023/01/07 10:49:14;;;;;;;1.63;1.52;;;12.20;99.90;;;;;;5016852;28;20187;-64
2023/01/07 10:51:45;;;;;;;1.65;1.55;;;12.20;99.90;;;;;;5026517;28;20313;-61
2023/01/07 10:54:35;;;;;;;2.00;1.85;;;12.20;99.90;;;;;;5019940;28;20211;-61
2023/01/07 10:57:11;;;;;;;1.55;1.45;;;12.20;99.90;;;;;;5018372;28;20174;-61
2023/01/07 10:59:37;;;;;;;1.80;1.70;;;12.20;99.90;;;;;;5023810;28;20218;-61
2023/01/07 11:02:03;;;;;;;1.73;1.48;;;12.20;99.90;;;;;;5015805;28;20229;-63
2023/01/07 11:04:29;;;;;;;1.58;1.48;;;12.30;99.90;;;;;;5033949;28;20234;-62
2023/01/07 11:07:05;;;;;;;2.40;1.77;;;12.50;99.90;;;;;;5015100;28;20179;-62
2023/01/07 11:09:41;;;;;;;2.03;1.73;;;12.40;99.90;;;;;;5015806;28;20182;-61
2023/01/07 11:12:40;;;;;;;1.80;1.70;;;12.50;99.90;;;;;;5013648;28;20183;-61
2023/01/07 11:15:18;;;;;;;2.60;2.00;;;12.50;99.90;;;;;;5027278;28;20187;-63
2023/01/07 11:17:52;;;;;;;2.63;2.42;;;12.50;99.90;;;;;;5024782;28;20186;-62
2023/01/07 11:20:44;;;;;;;2.92;2.38;;;12.60;99.90;;;;;;5013904;28;20555;-63
2023/01/07 11:23:27;;;;;;;2.83;2.55;;;12.70;99.90;;;;;;5011617;28;20187;-63
2023/01/07 11:25:54;;;;;;;2.00;1.90;;;12.90;99.90;;;;;;5015303;28;20211;-63
2023/01/07 11:28:26;;;;;;;2.67;2.30;;;12.80;99.90;;;;;;5013596;28;20277;-63
2023/01/07 11:30:58;;;;;;;6.20;1.95;;;12.80;99.90;;;;;;5023354;28;20510;-62
2023/01/07 11:33:29;;;;;;;1.70;1.60;;;12.70;99.90;;;;;;5026657;28;20171;-63
2023/01/07 11:35:55;;;;;;;1.80;1.70;;;12.70;99.90;;;;;;5015254;28;20194;-63
2023/01/07 11:38:31;;;;;;;1.92;1.75;;;12.80;99.90;;;;;;5029590;28;20215;-62
2023/01/07 11:40:59;;;;;;;2.78;1.90;;;12.70;99.90;;;;;;5015570;28;20523;-62
2023/01/07 11:43:34;;;;;;;1.60;1.50;;;12.80;99.90;;;;;;5020555;28;20191;-62
2023/01/07 11:46:10;;;;;;;2.20;1.85;;;12.80;99.90;;;;;;5014305;28;20256;-63
2023/01/07 11:48:38;;;;;;;2.25;2.05;;;12.80;99.90;;;;;;5014512;28;20214;-64
2023/01/07 11:51:06;;;;;;;3.10;2.25;;;12.80;99.90;;;;;;5010401;28;20179;-65
2023/01/07 11:53:52;;;;;;;1.80;1.70;;;12.70;99.90;;;;;;5029295;28;20274;-61
2023/01/07 11:56:20;;;;;;;3.45;1.75;;;12.70;99.90;;;;;;5014283;28;20221;-64
2023/01/07 11:58:48;;;;;;;3.15;1.92;;;12.70;99.90;;;;;;5025489;28;20182;-61
2023/01/07 12:01:22;;;;;;;2.50;1.85;;;12.70;99.90;;;;;;5014568;28;20632;-63
2023/01/07 12:03:51;;;;;;;3.90;2.80;;;12.70;99.90;;;;;;5017064;28;20179;-63
2023/01/07 12:06:47;;;;;;;2.38;1.80;;;12.70;99.90;;;;;;5012320;28;20222;-67
2023/01/07 12:09:25;;;;;;;2.15;1.90;;;12.70;99.90;;;;;;5007012;28;20202;-66
2023/01/07 12:11:53;;;;;;;1.73;1.63;;;12.60;99.90;;;;;;5016129;28;20490;-64
2023/01/07 12:14:27;;;;;;;2.67;2.22;;;12.70;99.90;;;;;;5015230;28;20716;-64
2023/01/07 12:16:55;;;;;;;2.22;1.77;;;12.80;99.90;;;;;;5014703;28;20303;-63
2023/01/07 12:19:30;;;;;;;3.75;1.70;;;12.80;99.90;;;;;;5017719;28;20515;-62
2023/01/07 12:22:26;;;;;;;3.28;1.70;;;13.00;99.90;;;;;;5009199;28;20191;-64
2023/01/07 12:25:50;;;;;;;2.17;1.70;;;12.90;99.90;;;;;;5015915;28;20238;-63
2023/01/07 12:28:22;;;;;;;2.42;2.22;;;13.00;99.90;;;;;;4981493;28;20203;-66
2023/01/07 12:31:15;;;;;;;2.15;1.98;;;12.90;99.90;;;;;;5009926;28;20170;-61
2023/01/07 12:33:55;;;;;;;1.70;1.60;;;12.90;99.90;;;;;;5027187;28;20273;-64
2023/01/07 12:36:44;;;;;;;2.00;1.80;;;12.80;99.90;;;;;;5012063;28;20171;-64
2023/01/07 12:39:45;;;;;;;1.70;1.60;;;12.80;99.90;;;;;;5009575;28;20191;-62
2023/01/07 12:42:22;;;;;;;2.22;1.77;;;12.80;99.90;;;;;;5016023;28;20214;-63
2023/01/07 12:44:53;;;;;;;1.52;1.42;;;12.80;99.90;;;;;;5015001;28;20345;-63
2023/01/07 12:47:31;;;;;;;2.05;1.50;;;12.80;99.90;;;;;;5018493;28;20203;-64
2023/01/07 12:50:05;;;;;;;1.52;1.42;;;12.80;99.90;;;;;;5007300;28;20175;-61
2023/01/07 12:52:37;;;;;;;1.63;1.58;;;13.10;99.90;;;;;;5012514;28;20179;-62
2023/01/07 12:55:23;;;;;;;1.25;1.15;;;13.10;99.90;;;;;;5013269;28;20195;-63
2023/01/07 12:58:20;;;;;;;2.72;1.98;;;13.10;99.90;;;;;;5012075;28;20183;-62
2023/01/07 13:00:45;;;;;;;2.55;2.10;;;13.20;99.90;;;;;;5013001;28;20175;-64
2023/01/07 13:03:18;;;;;;;3.75;1.73;;;13.10;99.90;;;;;;5013105;28;20180;-64